createdAt,value
2023-01-17T00:01:54.003Z,3.00
2023-01-17T00:04:39.628Z,3.00
2023-01-17T00:07:27.613Z,3.00
2023-01-17T00:09:57.099Z,2.90
2023-01-17T00:12:30.003Z,2.80
2023-01-17T00:15:00.154Z,3.00
2023-01-17T00:17:30.182Z,3.00
2023-01-17T00:20:18.655Z,2.90
2023-01-17T00:23:05.739Z,2.80
2023-01-17T00:25:58.639Z,2.80
2023-01-17T00:28:27.697Z,2.80
2023-01-17T00:30:54.696Z,2.80
2023-01-17T00:33:23.247Z,2.90
2023-01-17T00:35:50.873Z,2.90
2023-01-17T00:38:19.810Z,2.80
2023-01-17T00:40:47.859Z,2.80
2023-01-17T00:43:36.296Z,2.70
2023-01-17T00:46:24.343Z,2.80
2023-01-17T00:49:10.592Z,2.70
2023-01-17T00:51:56.798Z,2.70
2023-01-17T00:54:42.404Z,2.70
2023-01-17T00:57:28.247Z,2.50
2023-01-17T01:00:13.604Z,2.40
2023-01-17T01:03:00.404Z,2.00
2023-01-17T01:05:46.304Z,2.20
2023-01-17T01:08:40.272Z,2.00
2023-01-17T01:11:28.182Z,2.00
2023-01-17T01:14:14.293Z,2.00
2023-01-17T01:17:00.046Z,2.10
2023-01-17T01:19:47.267Z,2.30
2023-01-17T01:22:32.914Z,2.50
2023-01-17T01:25:18.590Z,2.50
2023-01-17T01:28:04.481Z,2.60
2023-01-17T01:30:50.424Z,2.60
2023-01-17T01:33:20.195Z,2.60
2023-01-17T01:35:52.047Z,2.70
2023-01-17T01:38:21.698Z,2.70
2023-01-17T01:40:52.749Z,2.70
2023-01-17T01:43:23.063Z,2.70
2023-01-17T01:45:54.364Z,2.70
2023-01-17T01:48:34.997Z,2.70
2023-01-17T01:51:08.383Z,2.70
2023-01-17T01:53:41.753Z,2.70
2023-01-17T01:56:12.998Z,2.80
2023-01-17T01:58:43.003Z,2.70
2023-01-17T02:01:11.481Z,2.70
2023-01-17T02:03:42.148Z,2.70
2023-01-17T02:06:26.831Z,2.70
2023-01-17T02:08:55.534Z,2.60
2023-01-17T02:11:24.148Z,2.60
2023-01-17T02:13:52.328Z,2.70
2023-01-17T02:16:35.314Z,2.60
2023-01-17T02:19:24.167Z,2.60
2023-01-17T02:22:08.355Z,2.60
2023-01-17T02:25:01.995Z,2.60
2023-01-17T02:27:39.828Z,2.60
2023-01-17T02:30:27.866Z,2.60
2023-01-17T02:33:24.171Z,2.60
2023-01-17T02:36:05.331Z,2.60
2023-01-17T02:38:41.654Z,2.50
2023-01-17T02:41:16.824Z,2.40
2023-01-17T02:43:45.336Z,2.40
2023-01-17T02:46:14.986Z,2.40
2023-01-17T02:48:43.923Z,2.40
2023-01-17T02:51:36.870Z,2.30
2023-01-17T02:54:31.460Z,2.20
2023-01-17T02:57:15.044Z,2.10
2023-01-17T02:59:53.879Z,2.00
2023-01-17T03:02:32.710Z,1.80
2023-01-17T03:05:06.068Z,2.00
2023-01-17T03:07:35.551Z,2.00
2023-01-17T03:10:06.667Z,2.00
2023-01-17T03:12:38.497Z,1.90
2023-01-17T03:15:11.216Z,1.90
2023-01-17T03:17:46.367Z,2.00
2023-01-17T03:20:14.569Z,2.00
2023-01-17T03:22:42.891Z,2.00
2023-01-17T03:25:11.626Z,2.00
2023-01-17T03:27:39.907Z,2.10
2023-01-17T03:30:09.704Z,2.10
2023-01-17T03:32:38.013Z,2.00
2023-01-17T03:35:08.620Z,2.10
2023-01-17T03:37:36.801Z,2.10
2023-01-17T03:40:05.827Z,2.10
2023-01-17T03:42:34.056Z,2.10
2023-01-17T03:45:02.405Z,2.10
2023-01-17T03:47:31.006Z,2.00
2023-01-17T03:49:59.208Z,2.10
2023-01-17T03:52:28.810Z,2.00
2023-01-17T03:54:57.134Z,2.10
2023-01-17T03:57:25.364Z,2.00
2023-01-17T03:59:53.561Z,2.00
2023-01-17T04:02:21.909Z,2.10
2023-01-17T04:04:50.091Z,2.00
2023-01-17T04:07:19.585Z,1.90
2023-01-17T04:09:49.309Z,1.90
2023-01-17T04:12:17.583Z,1.80
2023-01-17T04:14:45.753Z,1.90
2023-01-17T04:17:14.549Z,1.90
2023-01-17T04:19:42.880Z,1.90
2023-01-17T04:22:11.143Z,2.00
2023-01-17T04:24:39.479Z,1.90
2023-01-17T04:27:10.944Z,1.90
2023-01-17T04:29:39.151Z,1.90
2023-01-17T04:32:07.626Z,1.90
2023-01-17T04:34:40.049Z,1.90
2023-01-17T04:37:27.591Z,1.90
2023-01-17T04:43:11.265Z,1.80
2023-01-17T04:45:43.940Z,1.90
2023-01-17T04:48:22.780Z,1.90
2023-01-17T04:51:07.538Z,1.80
2023-01-17T04:54:01.818Z,1.80
2023-01-17T04:56:30.078Z,1.80
2023-01-17T04:58:59.885Z,1.70
2023-01-17T05:01:28.341Z,1.80
2023-01-17T05:03:56.558Z,1.80
2023-01-17T05:06:24.817Z,1.80
2023-01-17T05:08:53.210Z,1.80
2023-01-17T05:11:21.456Z,1.70
2023-01-17T05:13:49.782Z,1.70
2023-01-17T05:16:20.977Z,1.70
2023-01-17T05:18:53.523Z,1.70
2023-01-17T05:21:22.426Z,1.60
2023-01-17T05:23:50.721Z,1.60
2023-01-17T05:26:19.605Z,1.60
2023-01-17T05:28:49.552Z,1.60
2023-01-17T05:31:20.883Z,1.60
2023-01-17T05:33:50.110Z,1.70
2023-01-17T05:36:20.968Z,1.70
2023-01-17T05:38:54.991Z,1.70
2023-01-17T05:41:23.350Z,1.60
2023-01-17T05:43:51.565Z,1.60
2023-01-17T05:46:21.607Z,1.60
2023-01-17T05:48:52.722Z,1.60
2023-01-17T05:51:21.140Z,1.70
2023-01-17T05:53:49.980Z,1.60
2023-01-17T05:56:23.464Z,1.60
2023-01-17T05:58:57.345Z,1.60
2023-01-17T06:01:35.115Z,1.60
2023-01-17T06:04:07.069Z,1.60
2023-01-17T06:06:35.642Z,1.50
2023-01-17T06:09:05.351Z,1.50
2023-01-17T06:11:38.959Z,1.50
2023-01-17T06:14:17.767Z,1.50
2023-01-17T06:19:57.518Z,1.30
2023-01-17T06:22:25.925Z,1.30
2023-01-17T06:24:54.076Z,1.30
2023-01-17T06:27:27.175Z,1.30
2023-01-17T06:29:55.606Z,1.20
2023-01-17T06:33:06.610Z,1.30
2023-01-17T06:45:22.808Z,1.10
2023-01-17T06:47:52.382Z,1.10
2023-01-17T06:50:22.836Z,1.10
2023-01-17T06:53:20.935Z,1.10
2023-01-17T06:55:53.303Z,1.10
2023-01-17T06:58:26.169Z,1.10
2023-01-17T07:00:55.844Z,1.20
2023-01-17T07:03:27.324Z,1.20
2023-01-17T07:06:25.373Z,1.20
2023-01-17T07:08:56.940Z,1.20
2023-01-17T07:11:39.741Z,1.20
2023-01-17T07:17:24.142Z,1.20
2023-01-17T07:20:02.873Z,1.30
2023-01-17T07:22:40.067Z,1.30
2023-01-17T07:31:59.269Z,1.40
2023-01-17T07:34:27.479Z,1.30
2023-01-17T07:40:17.223Z,1.20
2023-01-17T07:42:45.955Z,1.20
2023-01-17T07:45:16.171Z,1.30
2023-01-17T07:47:44.526Z,1.20
2023-01-17T07:50:16.626Z,1.30
2023-01-17T07:52:50.517Z,1.20
2023-01-17T07:55:19.368Z,1.20
2023-01-17T07:57:51.408Z,1.30
2023-01-17T08:00:20.549Z,1.20
2023-01-17T08:02:48.803Z,1.20
2023-01-17T08:05:17.475Z,1.50
2023-01-17T08:07:47.359Z,3.40
2023-01-17T08:10:18.102Z,3.40
2023-01-17T08:12:47.117Z,3.20
2023-01-17T08:15:15.708Z,3.80
2023-01-17T08:17:47.526Z,2.80
2023-01-17T08:20:18.978Z,2.90
2023-01-17T08:22:49.277Z,1.90
2023-01-17T08:34:48.608Z,4.90
2023-01-17T08:37:22.313Z,2.80
2023-01-17T08:40:03.386Z,2.20
2023-01-17T08:42:45.461Z,1.90
2023-01-17T08:45:29.998Z,1.70
2023-01-17T08:48:07.591Z,1.70
2023-01-17T08:51:02.403Z,1.70
2023-01-17T08:53:57.180Z,1.70
2023-01-17T08:56:34.891Z,1.70
2023-01-17T09:01:58.453Z,1.80
2023-01-17T09:04:26.943Z,1.90
2023-01-17T09:06:55.164Z,1.70
2023-01-17T09:09:23.535Z,1.60
2023-01-17T09:11:54.633Z,1.70
2023-01-17T09:14:27.476Z,1.90
2023-01-17T09:16:56.764Z,1.90
2023-01-17T09:19:26.236Z,2.20
2023-01-17T09:22:03.744Z,2.50
2023-01-17T09:24:32.929Z,2.80
2023-01-17T09:27:08.296Z,2.80
2023-01-17T09:29:36.815Z,2.50
2023-01-17T09:32:05.667Z,2.50
2023-01-17T09:34:33.935Z,2.50
2023-01-17T09:37:02.218Z,2.30
2023-01-17T09:39:30.570Z,2.30
2023-01-17T09:42:10.112Z,2.30
2023-01-17T09:44:48.154Z,2.60
2023-01-17T09:47:21.376Z,2.60
2023-01-17T09:49:49.972Z,2.20
2023-01-17T09:52:23.339Z,2.40
2023-01-17T09:54:53.356Z,2.40
2023-01-17T10:04:06.376Z,2.50
2023-01-17T10:07:08.858Z,2.40
2023-01-17T10:10:01.907Z,2.60
2023-01-17T10:12:44.556Z,2.60
2023-01-17T10:15:44.701Z,2.50
2023-01-17T10:18:47.843Z,2.50
2023-01-17T10:21:29.166Z,2.50
2023-01-17T10:24:18.305Z,2.40
2023-01-17T10:26:51.091Z,2.60
2023-01-17T10:29:22.076Z,2.70
2023-01-17T10:31:56.886Z,2.90
2023-01-17T10:35:01.787Z,3.00
2023-01-17T10:37:43.527Z,2.90
2023-01-17T10:40:28.751Z,2.80
2023-01-17T10:43:08.225Z,3.10
2023-01-17T10:50:03.776Z,2.90
2023-01-17T10:52:40.206Z,2.60
2023-01-17T10:55:25.407Z,3.10
2023-01-17T10:57:55.157Z,3.20
2023-01-17T11:00:51.451Z,3.00
2023-01-17T11:03:22.033Z,3.20
2023-01-17T11:06:26.856Z,3.20
2023-01-17T11:09:04.134Z,3.20
2023-01-17T11:15:11.907Z,3.40
2023-01-17T11:17:47.535Z,3.50
2023-01-17T11:20:31.889Z,3.10
2023-01-17T11:23:24.077Z,3.20
2023-01-17T11:25:58.586Z,3.30
2023-01-17T11:28:53.923Z,3.50
2023-01-17T11:32:30.813Z,3.40
2023-01-17T11:35:44.783Z,3.30
2023-01-17T11:38:46.161Z,2.80
2023-01-17T11:41:23.646Z,2.70
2023-01-17T11:44:01.218Z,2.70
2023-01-17T11:49:35.441Z,2.60
2023-01-17T11:52:10.487Z,2.50
2023-01-17T11:54:42.674Z,2.40
2023-01-17T11:58:08.470Z,2.30
2023-01-17T12:04:51.076Z,2.50
2023-01-17T12:07:51.834Z,2.60
2023-01-17T12:10:54.914Z,2.70
2023-01-17T12:14:29.207Z,2.80
2023-01-17T12:17:57.676Z,2.80
2023-01-17T12:20:39.395Z,2.80
2023-01-17T12:23:49.018Z,2.60
2023-01-17T12:26:32.966Z,2.80
2023-01-17T12:29:33.146Z,2.70
2023-01-17T12:35:38.812Z,2.90
2023-01-17T12:38:33.318Z,3.10
2023-01-17T12:41:28.582Z,3.30
2023-01-17T12:46:59.037Z,3.50
2023-01-17T12:50:09.126Z,3.10
2023-01-17T12:53:15.851Z,3.10
2023-01-17T12:56:01.280Z,2.90
2023-01-17T12:58:57.457Z,3.00
2023-01-17T13:01:32.555Z,2.80
2023-01-17T13:04:14.573Z,2.70
2023-01-17T13:06:53.647Z,2.80
2023-01-17T13:09:24.449Z,2.60
2023-01-17T13:12:07.091Z,2.60
2023-01-17T13:14:40.681Z,2.60
2023-01-17T13:17:29.455Z,2.60
2023-01-17T13:20:09.132Z,2.60
2023-01-17T13:22:41.202Z,2.50
2023-01-17T13:25:22.688Z,2.60
2023-01-17T13:28:18.133Z,2.70
2023-01-17T13:31:34.470Z,2.80
2023-01-17T13:34:49.242Z,2.80
2023-01-17T13:37:54.211Z,2.70
2023-01-17T13:47:43.359Z,2.80
2023-01-17T13:50:52.618Z,2.80
2023-01-17T13:53:59.213Z,2.80
2023-01-17T13:56:40.802Z,2.80
2023-01-17T14:00:03.814Z,2.80
2023-01-17T14:02:40.127Z,2.70
2023-01-17T14:05:15.338Z,2.70
2023-01-17T14:11:58.298Z,2.90
2023-01-17T14:14:50.303Z,2.90
2023-01-17T14:18:21.348Z,2.90
2023-01-17T14:21:08.310Z,2.90
2023-01-17T14:24:01.349Z,2.80
2023-01-17T14:30:02.986Z,2.90
2023-01-17T14:32:34.175Z,2.90
2023-01-17T14:35:03.591Z,2.90
2023-01-17T14:37:50.176Z,2.90
2023-01-17T14:40:25.043Z,2.90
2023-01-17T14:43:04.386Z,2.90
2023-01-17T14:45:34.762Z,2.80
2023-01-17T14:48:05.757Z,2.80
2023-01-17T14:50:42.617Z,2.80
2023-01-17T15:00:20.933Z,2.70
2023-01-17T15:02:51.011Z,2.60
2023-01-17T15:05:47.509Z,2.60
2023-01-17T15:12:04.865Z,2.60
2023-01-17T15:14:50.812Z,2.60
2023-01-17T15:17:24.686Z,2.50
2023-01-17T15:20:09.328Z,2.50
2023-01-17T15:22:38.022Z,2.40
2023-01-17T15:32:05.095Z,2.30
2023-01-17T15:34:37.818Z,2.30
2023-01-17T15:37:25.172Z,2.20
2023-01-17T15:40:02.710Z,2.20
2023-01-17T15:46:24.989Z,2.00
2023-01-17T15:48:55.694Z,1.90
2023-01-17T15:52:09.511Z,1.80
2023-01-17T15:54:51.030Z,1.80
2023-01-17T15:57:36.994Z,1.70
2023-01-17T16:00:20.441Z,1.60
2023-01-17T16:02:57.055Z,1.60
2023-01-17T16:05:44.261Z,1.50
2023-01-17T16:08:50.127Z,1.50
2023-01-17T16:11:52.628Z,1.40
2023-01-17T16:14:23.650Z,1.30
2023-01-17T16:16:55.627Z,1.20
2023-01-17T16:19:25.115Z,1.20
2023-01-17T16:21:57.181Z,1.10
2023-01-17T16:24:37.314Z,1.10
2023-01-17T16:27:32.773Z,1.00
2023-01-17T16:33:22.531Z,1.00
2023-01-17T16:35:55.506Z,1.00
2023-01-17T16:38:25.719Z,1.10
2023-01-17T16:47:03.272Z,1.20
2023-01-17T16:49:35.237Z,1.20
2023-01-17T16:52:09.035Z,1.30
2023-01-17T16:54:42.574Z,1.20
2023-01-17T16:57:12.126Z,1.10
2023-01-17T16:59:50.688Z,1.00
2023-01-17T17:02:20.011Z,0.90
2023-01-17T17:04:48.334Z,0.80
2023-01-17T17:07:18.345Z,0.80
2023-01-17T17:09:49.355Z,0.80
2023-01-17T17:12:19.516Z,0.80
2023-01-17T17:18:35.248Z,0.70
2023-01-17T17:21:11.767Z,0.70
2023-01-17T17:23:41.493Z,0.60
2023-01-17T17:26:17.852Z,0.50
2023-01-17T17:28:51.783Z,0.40
2023-01-17T17:31:27.741Z,0.50
2023-01-17T17:34:00.182Z,0.50
2023-01-17T17:36:39.553Z,0.50
2023-01-17T17:39:16.929Z,0.40
2023-01-17T17:41:55.687Z,0.40
2023-01-17T17:44:27.934Z,0.30
2023-01-17T17:46:56.226Z,0.30
2023-01-17T17:49:24.762Z,0.30
2023-01-17T17:51:53.059Z,0.30
2023-01-17T17:54:31.132Z,0.10
2023-01-17T17:57:02.292Z,0.00
2023-01-17T17:59:34.986Z,-0.10
2023-01-17T18:02:03.387Z,0.00
2023-01-17T18:08:02.001Z,0.00
2023-01-17T18:10:36.152Z,-0.10
2023-01-17T18:13:05.864Z,0.00
2023-01-17T18:15:45.079Z,0.00
2023-01-17T18:18:20.624Z,0.00
2023-01-17T18:20:50.707Z,0.00
2023-01-17T18:23:18.927Z,-0.20
2023-01-17T18:25:48.296Z,-0.30
2023-01-17T18:28:43.050Z,-0.20
2023-01-17T18:31:25.209Z,-0.20
2023-01-17T18:33:56.858Z,-0.20
2023-01-17T18:36:55.561Z,-0.20
2023-01-17T18:39:54.275Z,-0.20
2023-01-17T18:42:36.400Z,-0.30
2023-01-17T18:45:17.568Z,-0.30
2023-01-17T18:47:46.525Z,-0.30
2023-01-17T18:50:21.037Z,-0.30
2023-01-17T18:52:49.601Z,-0.30
2023-01-17T18:55:18.177Z,-0.30
2023-01-17T18:57:47.219Z,-0.40
2023-01-17T19:00:23.020Z,-0.40
2023-01-17T19:03:06.627Z,-0.40
2023-01-17T19:05:44.744Z,-0.40
2023-01-17T19:08:24.159Z,-0.50
2023-01-17T19:11:04.486Z,-0.40
2023-01-17T19:13:40.891Z,-0.40
2023-01-17T19:16:31.104Z,-0.50
2023-01-17T19:19:13.919Z,-0.50
2023-01-17T19:21:46.453Z,-0.60
2023-01-17T19:24:15.744Z,-0.60
2023-01-17T19:26:44.508Z,-0.60
2023-01-17T19:29:15.470Z,-0.50
2023-01-17T19:31:53.765Z,-0.50
2023-01-17T19:34:23.184Z,-0.60
2023-01-17T19:36:56.590Z,-0.60
2023-01-17T19:39:28.217Z,-0.60
2023-01-17T19:41:59.247Z,-0.50
2023-01-17T19:44:27.771Z,-0.50
2023-01-17T19:47:01.821Z,-0.50
2023-01-17T19:49:32.223Z,-0.50
2023-01-17T19:52:07.257Z,-0.60
2023-01-17T19:55:03.076Z,-0.60
2023-01-17T19:58:01.073Z,-0.60
2023-01-17T20:01:07.242Z,-0.60
2023-01-17T20:03:51.872Z,-0.70
2023-01-17T20:06:32.232Z,-0.80
2023-01-17T20:09:18.403Z,-0.90
2023-01-17T20:12:01.386Z,-0.90
2023-01-17T20:14:57.369Z,-0.90
2023-01-17T20:17:44.834Z,-0.90
2023-01-17T20:20:32.819Z,-1.00
2023-01-17T20:23:16.004Z,-1.00
2023-01-17T20:26:00.403Z,-1.00
2023-01-17T20:28:39.315Z,-1.00
2023-01-17T20:31:14.202Z,-0.90
2023-01-17T20:33:58.436Z,-1.00
2023-01-17T20:36:30.116Z,-1.00
2023-01-17T20:38:58.480Z,-1.10
2023-01-17T20:41:33.575Z,-1.00
2023-01-17T20:44:03.662Z,-1.00
2023-01-17T20:46:41.730Z,-1.00
2023-01-17T20:49:18.925Z,-1.00
2023-01-17T20:51:55.520Z,-1.00
2023-01-17T20:54:34.068Z,-0.90
2023-01-17T20:57:02.827Z,-1.10
2023-01-17T20:59:31.047Z,-1.00
2023-01-17T21:02:00.038Z,-1.00
2023-01-17T21:04:29.817Z,-1.10
2023-01-17T21:07:03.917Z,-1.10
2023-01-17T21:09:33.736Z,-1.10
2023-01-17T21:12:10.077Z,-1.10
2023-01-17T21:14:41.025Z,-1.10
2023-01-17T21:17:09.383Z,-1.10
2023-01-17T21:19:38.018Z,-1.10
2023-01-17T21:22:08.730Z,-1.20
2023-01-17T21:28:01.588Z,-1.20
2023-01-17T21:30:29.865Z,-1.20
2023-01-17T21:32:59.975Z,-1.30
2023-01-17T21:35:30.205Z,-1.40
2023-01-17T21:37:59.947Z,-1.40
2023-01-17T21:40:28.223Z,-1.40
2023-01-17T21:43:03.710Z,-1.30
2023-01-17T21:45:32.884Z,-1.20
2023-01-17T21:48:02.600Z,-1.30
2023-01-17T21:50:33.656Z,-1.30
2023-01-17T21:53:04.400Z,-1.30
2023-01-17T21:55:53.637Z,-1.40
2023-01-17T21:58:39.731Z,-1.40
2023-01-17T22:01:18.892Z,-1.40
2023-01-17T22:03:50.608Z,-1.40
2023-01-17T22:06:19.024Z,-1.40
2023-01-17T22:08:50.319Z,-1.40
2023-01-17T22:11:20.988Z,-1.40
2023-01-17T22:13:49.716Z,-1.40
2023-01-17T22:16:19.972Z,-1.40
2023-01-17T22:18:48.970Z,-1.40
2023-01-17T22:21:19.944Z,-1.40
2023-01-17T22:23:51.844Z,-1.30
2023-01-17T22:26:21.457Z,-1.40
2023-01-17T22:28:49.720Z,-1.40
2023-01-17T22:31:20.982Z,-1.40
2023-01-17T22:33:53.368Z,-1.40
2023-01-17T22:36:21.927Z,-1.40
2023-01-17T22:38:51.924Z,-1.40
2023-01-17T22:41:21.728Z,-1.30
2023-01-17T22:43:52.169Z,-1.20
2023-01-17T22:46:22.401Z,-1.30
2023-01-17T22:48:50.795Z,-1.40
2023-01-17T22:51:22.639Z,-1.50
2023-01-17T22:53:54.785Z,-1.60
2023-01-17T22:56:24.391Z,-1.60
2023-01-17T22:58:52.838Z,-1.50
2023-01-17T23:01:23.217Z,-1.50
2023-01-17T23:03:53.719Z,-1.50
2023-01-17T23:06:24.102Z,-1.50
2023-01-17T23:08:56.662Z,-1.50
2023-01-17T23:11:43.844Z,-1.50
2023-01-17T23:14:17.605Z,-1.50
2023-01-17T23:17:04.779Z,-1.50
2023-01-17T23:19:35.945Z,-1.50
2023-01-17T23:22:19.358Z,-1.50
2023-01-17T23:24:53.030Z,-1.50
2023-01-17T23:27:41.483Z,-1.50
2023-01-17T23:30:12.143Z,-1.50
2023-01-17T23:32:41.286Z,-1.50
2023-01-17T23:35:09.820Z,-1.50
2023-01-17T23:37:55.457Z,-1.50
2023-01-17T23:40:25.061Z,-1.40
2023-01-17T23:43:11.313Z,-1.50
2023-01-17T23:45:40.378Z,-1.50
2023-01-17T23:48:14.053Z,-1.50
2023-01-17T23:50:44.412Z,-1.40
2023-01-17T23:53:24.514Z,-1.50
2023-01-17T23:55:55.995Z,-1.50
2023-01-17T23:58:25.934Z,-1.50
